sensor_id;sensor_type;location;lat;lon;timestamp;P1;durP1;ratioP1;P2;durP2;ratioP2
70744;SDS011;59284;31.390;34.904;2022-11-20T00:01:28;5.22;;;2.20;;
70744;SDS011;59284;31.390;34.904;2022-11-20T00:03:55;6.60;;;2.67;;
70744;SDS011;59284;31.390;34.904;2022-11-20T00:06:23;5.97;;;2.70;;
70744;SDS011;59284;31.390;34.904;2022-11-20T00:08:51;5.25;;;2.65;;
70744;SDS011;59284;31.390;34.904;2022-11-20T00:11:17;4.70;;;2.40;;
70744;SDS011;59284;31.390;34.904;2022-11-20T00:13:45;4.13;;;2.10;;
70744;SDS011;59284;31.390;34.904;2022-11-20T00:16:13;5.70;;;2.70;;
70744;SDS011;59284;31.390;34.904;2022-11-20T00:18:41;6.55;;;2.70;;
70744;SDS011;59284;31.390;34.904;2022-11-20T00:21:12;5.82;;;2.25;;
70744;SDS011;59284;31.390;34.904;2022-11-20T00:23:40;5.13;;;2.30;;
70744;SDS011;59284;31.390;34.904;2022-11-20T00:26:08;6.17;;;2.33;;
70744;SDS011;59284;31.390;34.904;2022-11-20T00:28:36;8.52;;;2.42;;
70744;SDS011;59284;31.390;34.904;2022-11-20T00:31:06;8.50;;;2.22;;
70744;SDS011;59284;31.390;34.904;2022-11-20T00:33:36;5.55;;;1.85;;
70744;SDS011;59284;31.390;34.904;2022-11-20T00:36:06;9.93;;;2.77;;
70744;SDS011;59284;31.390;34.904;2022-11-20T00:38:34;3.60;;;1.70;;
70744;SDS011;59284;31.390;34.904;2022-11-20T00:41:02;5.45;;;2.53;;
70744;SDS011;59284;31.390;34.904;2022-11-20T00:43:29;5.60;;;2.80;;
70744;SDS011;59284;31.390;34.904;2022-11-20T00:45:58;4.28;;;2.28;;
70744;SDS011;59284;31.390;34.904;2022-11-20T00:48:24;4.97;;;3.03;;
70744;SDS011;59284;31.390;34.904;2022-11-20T00:50:52;8.53;;;2.43;;
70744;SDS011;59284;31.390;34.904;2022-11-20T00:53:18;4.45;;;1.88;;
70744;SDS011;59284;31.390;34.904;2022-11-20T00:55:52;5.72;;;2.80;;
70744;SDS011;59284;31.390;34.904;2022-11-20T00:58:20;3.60;;;1.90;;
70744;SDS011;59284;31.390;34.904;2022-11-20T01:00:47;4.90;;;1.97;;
70744;SDS011;59284;31.390;34.904;2022-11-20T01:03:17;7.15;;;2.55;;
70744;SDS011;59284;31.390;34.904;2022-11-20T01:05:44;9.98;;;2.60;;
70744;SDS011;59284;31.390;34.904;2022-11-20T01:08:10;7.23;;;2.57;;
70744;SDS011;59284;31.390;34.904;2022-11-20T01:10:36;6.43;;;2.60;;
70744;SDS011;59284;31.390;34.904;2022-11-20T01:13:03;5.82;;;3.13;;
70744;SDS011;59284;31.390;34.904;2022-11-20T01:15:47;5.60;;;2.90;;
70744;SDS011;59284;31.390;34.904;2022-11-20T01:18:13;7.13;;;2.40;;
70744;SDS011;59284;31.390;34.904;2022-11-20T01:20:39;11.23;;;3.42;;
70744;SDS011;59284;31.390;34.904;2022-11-20T01:23:08;6.47;;;2.97;;
70744;SDS011;59284;31.390;34.904;2022-11-20T01:25:34;9.10;;;3.40;;
70744;SDS011;59284;31.390;34.904;2022-11-20T01:28:02;9.77;;;3.17;;
70744;SDS011;59284;31.390;34.904;2022-11-20T01:30:28;10.55;;;3.13;;
70744;SDS011;59284;31.390;34.904;2022-11-20T01:32:55;7.47;;;3.25;;
70744;SDS011;59284;31.390;34.904;2022-11-20T01:35:21;9.00;;;3.17;;
70744;SDS011;59284;31.390;34.904;2022-11-20T01:37:46;8.37;;;3.33;;
70744;SDS011;59284;31.390;34.904;2022-11-20T01:40:12;6.88;;;2.72;;
70744;SDS011;59284;31.390;34.904;2022-11-20T01:42:44;7.43;;;3.10;;
70744;SDS011;59284;31.390;34.904;2022-11-20T01:48:12;8.20;;;3.30;;
70744;SDS011;59284;31.390;34.904;2022-11-20T01:50:39;6.07;;;2.70;;
70744;SDS011;59284;31.390;34.904;2022-11-20T01:53:08;8.13;;;3.22;;
70744;SDS011;59284;31.390;34.904;2022-11-20T01:55:42;7.33;;;2.93;;
70744;SDS011;59284;31.390;34.904;2022-11-20T01:58:13;5.28;;;3.00;;
70744;SDS011;59284;31.390;34.904;2022-11-20T02:00:41;5.88;;;3.22;;
70744;SDS011;59284;31.390;34.904;2022-11-20T02:03:11;4.60;;;2.60;;
70744;SDS011;59284;31.390;34.904;2022-11-20T02:08:21;8.47;;;3.57;;
70744;SDS011;59284;31.390;34.904;2022-11-20T02:10:48;6.47;;;2.70;;
70744;SDS011;59284;31.390;34.904;2022-11-20T02:13:14;7.60;;;2.88;;
70744;SDS011;59284;31.390;34.904;2022-11-20T02:15:59;6.57;;;3.30;;
70744;SDS011;59284;31.390;34.904;2022-11-20T02:18:26;6.97;;;3.80;;
70744;SDS011;59284;31.390;34.904;2022-11-20T02:20:54;9.02;;;3.28;;
70744;SDS011;59284;31.390;34.904;2022-11-20T02:23:39;10.82;;;3.55;;
70744;SDS011;59284;31.390;34.904;2022-11-20T02:26:25;9.93;;;4.35;;
70744;SDS011;59284;31.390;34.904;2022-11-20T02:28:53;7.65;;;3.67;;
70744;SDS011;59284;31.390;34.904;2022-11-20T02:31:20;11.10;;;4.03;;
70744;SDS011;59284;31.390;34.904;2022-11-20T02:33:53;9.52;;;4.55;;
70744;SDS011;59284;31.390;34.904;2022-11-20T02:36:20;20.65;;;4.38;;
70744;SDS011;59284;31.390;34.904;2022-11-20T02:38:46;12.48;;;4.57;;
70744;SDS011;59284;31.390;34.904;2022-11-20T02:41:12;8.20;;;3.55;;
70744;SDS011;59284;31.390;34.904;2022-11-20T02:43:37;11.43;;;4.30;;
70744;SDS011;59284;31.390;34.904;2022-11-20T02:46:03;8.32;;;3.90;;
70744;SDS011;59284;31.390;34.904;2022-11-20T02:48:32;8.47;;;4.20;;
70744;SDS011;59284;31.390;34.904;2022-11-20T02:50:58;11.60;;;4.30;;
70744;SDS011;59284;31.390;34.904;2022-11-20T02:53:23;10.23;;;3.90;;
70744;SDS011;59284;31.390;34.904;2022-11-20T02:55:50;7.07;;;2.95;;
70744;SDS011;59284;31.390;34.904;2022-11-20T02:58:18;5.45;;;2.80;;
70744;SDS011;59284;31.390;34.904;2022-11-20T03:00:44;7.00;;;3.38;;
70744;SDS011;59284;31.390;34.904;2022-11-20T03:03:10;7.83;;;4.00;;
70744;SDS011;59284;31.390;34.904;2022-11-20T03:05:35;9.32;;;2.95;;
70744;SDS011;59284;31.390;34.904;2022-11-20T03:08:01;7.60;;;3.50;;
70744;SDS011;59284;31.390;34.904;2022-11-20T03:10:27;7.50;;;4.13;;
70744;SDS011;59284;31.390;34.904;2022-11-20T03:12:54;9.77;;;3.38;;
70744;SDS011;59284;31.390;34.904;2022-11-20T03:15:21;7.43;;;3.50;;
70744;SDS011;59284;31.390;34.904;2022-11-20T03:17:54;14.47;;;4.10;;
70744;SDS011;59284;31.390;34.904;2022-11-20T03:20:20;7.00;;;3.65;;
70744;SDS011;59284;31.390;34.904;2022-11-20T03:22:46;9.32;;;3.60;;
70744;SDS011;59284;31.390;34.904;2022-11-20T03:25:12;7.50;;;3.30;;
70744;SDS011;59284;31.390;34.904;2022-11-20T03:27:38;5.90;;;3.17;;
70744;SDS011;59284;31.390;34.904;2022-11-20T03:30:04;7.97;;;2.38;;
70744;SDS011;59284;31.390;34.904;2022-11-20T03:32:30;6.03;;;2.60;;
70744;SDS011;59284;31.390;34.904;2022-11-20T03:34:56;10.48;;;3.08;;
70744;SDS011;59284;31.390;34.904;2022-11-20T03:37:22;7.07;;;2.75;;
70744;SDS011;59284;31.390;34.904;2022-11-20T03:39:48;11.30;;;4.37;;
70744;SDS011;59284;31.390;34.904;2022-11-20T03:42:13;11.32;;;3.55;;
70744;SDS011;59284;31.390;34.904;2022-11-20T03:44:57;8.05;;;3.55;;
70744;SDS011;59284;31.390;34.904;2022-11-20T03:47:23;14.07;;;4.00;;
70744;SDS011;59284;31.390;34.904;2022-11-20T03:49:49;10.77;;;3.70;;
70744;SDS011;59284;31.390;34.904;2022-11-20T03:52:15;10.47;;;3.33;;
70744;SDS011;59284;31.390;34.904;2022-11-20T03:54:40;8.52;;;4.18;;
70744;SDS011;59284;31.390;34.904;2022-11-20T03:57:06;12.37;;;3.63;;
70744;SDS011;59284;31.390;34.904;2022-11-20T03:59:32;10.65;;;3.78;;
70744;SDS011;59284;31.390;34.904;2022-11-20T04:01:57;8.17;;;4.03;;
70744;SDS011;59284;31.390;34.904;2022-11-20T04:04:23;9.75;;;3.38;;
70744;SDS011;59284;31.390;34.904;2022-11-20T04:06:49;9.03;;;3.57;;
70744;SDS011;59284;31.390;34.904;2022-11-20T04:09:14;10.90;;;3.75;;
70744;SDS011;59284;31.390;34.904;2022-11-20T04:11:40;8.95;;;3.38;;
70744;SDS011;59284;31.390;34.904;2022-11-20T04:14:11;13.60;;;3.23;;
70744;SDS011;59284;31.390;34.904;2022-11-20T04:16:38;15.10;;;4.32;;
70744;SDS011;59284;31.390;34.904;2022-11-20T04:19:05;11.82;;;4.03;;
70744;SDS011;59284;31.390;34.904;2022-11-20T04:21:35;10.85;;;4.28;;
70744;SDS011;59284;31.390;34.904;2022-11-20T04:24:01;13.00;;;3.78;;
70744;SDS011;59284;31.390;34.904;2022-11-20T04:26:27;5.80;;;3.17;;
70744;SDS011;59284;31.390;34.904;2022-11-20T04:28:54;10.27;;;3.47;;
70744;SDS011;59284;31.390;34.904;2022-11-20T04:31:22;7.47;;;3.03;;
70744;SDS011;59284;31.390;34.904;2022-11-20T04:33:49;12.90;;;3.13;;
70744;SDS011;59284;31.390;34.904;2022-11-20T04:36:16;18.07;;;3.27;;
70744;SDS011;59284;31.390;34.904;2022-11-20T04:38:43;7.80;;;3.22;;
70744;SDS011;59284;31.390;34.904;2022-11-20T04:41:14;7.65;;;2.60;;
70744;SDS011;59284;31.390;34.904;2022-11-20T04:43:45;20.88;;;3.80;;
70744;SDS011;59284;31.390;34.904;2022-11-20T04:46:13;11.03;;;3.00;;
70744;SDS011;59284;31.390;34.904;2022-11-20T04:48:39;13.27;;;3.22;;
70744;SDS011;59284;31.390;34.904;2022-11-20T04:51:05;8.77;;;2.77;;
70744;SDS011;59284;31.390;34.904;2022-11-20T04:53:30;10.00;;;3.10;;
70744;SDS011;59284;31.390;34.904;2022-11-20T04:56:00;7.47;;;3.75;;
70744;SDS011;59284;31.390;34.904;2022-11-20T04:58:27;11.38;;;3.03;;
70744;SDS011;59284;31.390;34.904;2022-11-20T05:00:53;11.48;;;2.65;;
70744;SDS011;59284;31.390;34.904;2022-11-20T05:03:18;9.40;;;3.40;;
70744;SDS011;59284;31.390;34.904;2022-11-20T05:05:44;6.47;;;3.17;;
70744;SDS011;59284;31.390;34.904;2022-11-20T05:08:10;13.52;;;3.03;;
70744;SDS011;59284;31.390;34.904;2022-11-20T05:10:35;8.67;;;2.90;;
70744;SDS011;59284;31.390;34.904;2022-11-20T05:13:01;6.25;;;2.67;;
70744;SDS011;59284;31.390;34.904;2022-11-20T05:15:26;8.30;;;3.23;;
70744;SDS011;59284;31.390;34.904;2022-11-20T05:17:52;5.95;;;2.70;;
70744;SDS011;59284;31.390;34.904;2022-11-20T05:20:18;6.47;;;2.70;;
70744;SDS011;59284;31.390;34.904;2022-11-20T05:22:45;7.30;;;3.00;;
70744;SDS011;59284;31.390;34.904;2022-11-20T05:25:10;5.13;;;3.08;;
70744;SDS011;59284;31.390;34.904;2022-11-20T05:27:37;5.50;;;2.50;;
70744;SDS011;59284;31.390;34.904;2022-11-20T05:30:06;6.45;;;3.03;;
70744;SDS011;59284;31.390;34.904;2022-11-20T05:32:32;4.70;;;2.42;;
70744;SDS011;59284;31.390;34.904;2022-11-20T05:34:57;9.50;;;2.80;;
70744;SDS011;59284;31.390;34.904;2022-11-20T05:37:23;9.27;;;3.25;;
70744;SDS011;59284;31.390;34.904;2022-11-20T05:39:49;10.37;;;3.10;;
70744;SDS011;59284;31.390;34.904;2022-11-20T05:42:14;7.38;;;3.20;;
70744;SDS011;59284;31.390;34.904;2022-11-20T05:44:55;9.80;;;2.70;;
70744;SDS011;59284;31.390;34.904;2022-11-20T05:47:21;5.93;;;2.73;;
70744;SDS011;59284;31.390;34.904;2022-11-20T05:49:47;9.95;;;3.20;;
70744;SDS011;59284;31.390;34.904;2022-11-20T05:52:13;5.60;;;3.00;;
70744;SDS011;59284;31.390;34.904;2022-11-20T05:54:38;9.80;;;2.33;;
70744;SDS011;59284;31.390;34.904;2022-11-20T05:57:04;13.60;;;3.57;;
70744;SDS011;59284;31.390;34.904;2022-11-20T05:59:30;10.13;;;3.08;;
70744;SDS011;59284;31.390;34.904;2022-11-20T06:01:55;5.83;;;2.57;;
70744;SDS011;59284;31.390;34.904;2022-11-20T06:04:21;9.95;;;2.95;;
70744;SDS011;59284;31.390;34.904;2022-11-20T06:06:47;7.00;;;2.57;;
70744;SDS011;59284;31.390;34.904;2022-11-20T06:09:12;20.13;;;2.85;;
70744;SDS011;59284;31.390;34.904;2022-11-20T06:11:38;10.40;;;2.93;;
70744;SDS011;59284;31.390;34.904;2022-11-20T06:14:03;7.47;;;3.30;;
70744;SDS011;59284;31.390;34.904;2022-11-20T06:16:31;12.43;;;2.60;;
70744;SDS011;59284;31.390;34.904;2022-11-20T06:18:57;15.77;;;2.72;;
70744;SDS011;59284;31.390;34.904;2022-11-20T06:21:23;18.97;;;3.23;;
70744;SDS011;59284;31.390;34.904;2022-11-20T06:23:49;6.63;;;2.38;;
70744;SDS011;59284;31.390;34.904;2022-11-20T06:26:18;9.98;;;2.65;;
70744;SDS011;59284;31.390;34.904;2022-11-20T06:28:45;8.00;;;2.50;;
70744;SDS011;59284;31.390;34.904;2022-11-20T06:31:13;7.90;;;2.17;;
70744;SDS011;59284;31.390;34.904;2022-11-20T06:33:40;11.98;;;3.40;;
70744;SDS011;59284;31.390;34.904;2022-11-20T06:36:06;11.75;;;2.58;;
70744;SDS011;59284;31.390;34.904;2022-11-20T06:38:32;8.32;;;2.30;;
70744;SDS011;59284;31.390;34.904;2022-11-20T06:40:58;4.87;;;2.20;;
70744;SDS011;59284;31.390;34.904;2022-11-20T06:43:24;7.40;;;1.95;;
70744;SDS011;59284;31.390;34.904;2022-11-20T06:45:54;13.43;;;2.63;;
70744;SDS011;59284;31.390;34.904;2022-11-20T06:48:21;12.90;;;2.80;;
70744;SDS011;59284;31.390;34.904;2022-11-20T06:50:48;6.70;;;2.10;;
70744;SDS011;59284;31.390;34.904;2022-11-20T06:53:14;4.63;;;1.63;;
70744;SDS011;59284;31.390;34.904;2022-11-20T06:55:43;12.07;;;2.30;;
70744;SDS011;59284;31.390;34.904;2022-11-20T06:58:12;8.27;;;2.03;;
70744;SDS011;59284;31.390;34.904;2022-11-20T07:00:40;11.18;;;2.38;;
70744;SDS011;59284;31.390;34.904;2022-11-20T07:03:07;15.70;;;2.70;;
70744;SDS011;59284;31.390;34.904;2022-11-20T07:05:34;14.27;;;3.17;;
70744;SDS011;59284;31.390;34.904;2022-11-20T07:08:01;9.47;;;2.10;;
70744;SDS011;59284;31.390;34.904;2022-11-20T07:10:27;8.48;;;2.10;;
70744;SDS011;59284;31.390;34.904;2022-11-20T07:12:53;7.70;;;2.53;;
70744;SDS011;59284;31.390;34.904;2022-11-20T07:15:20;13.15;;;3.00;;
70744;SDS011;59284;31.390;34.904;2022-11-20T07:17:48;13.23;;;2.70;;
70744;SDS011;59284;31.390;34.904;2022-11-20T07:20:14;21.13;;;3.38;;
70744;SDS011;59284;31.390;34.904;2022-11-20T07:22:40;13.88;;;3.10;;
70744;SDS011;59284;31.390;34.904;2022-11-20T07:25:06;8.00;;;1.90;;
70744;SDS011;59284;31.390;34.904;2022-11-20T07:27:33;12.23;;;2.20;;
70744;SDS011;59284;31.390;34.904;2022-11-20T07:29:59;7.95;;;2.30;;
70744;SDS011;59284;31.390;34.904;2022-11-20T07:32:25;11.45;;;2.72;;
70744;SDS011;59284;31.390;34.904;2022-11-20T07:34:51;6.70;;;2.37;;
70744;SDS011;59284;31.390;34.904;2022-11-20T07:37:17;7.43;;;2.40;;
70744;SDS011;59284;31.390;34.904;2022-11-20T07:39:43;22.90;;;2.53;;
70744;SDS011;59284;31.390;34.904;2022-11-20T07:42:09;22.87;;;3.40;;
70744;SDS011;59284;31.390;34.904;2022-11-20T07:44:35;14.75;;;3.50;;
70744;SDS011;59284;31.390;34.904;2022-11-20T07:47:00;7.57;;;2.23;;
70744;SDS011;59284;31.390;34.904;2022-11-20T07:49:28;11.70;;;2.93;;
70744;SDS011;59284;31.390;34.904;2022-11-20T07:51:53;10.02;;;2.40;;
70744;SDS011;59284;31.390;34.904;2022-11-20T07:54:19;8.80;;;2.57;;
70744;SDS011;59284;31.390;34.904;2022-11-20T07:56:46;12.13;;;2.63;;
70744;SDS011;59284;31.390;34.904;2022-11-20T07:59:12;19.88;;;3.33;;
70744;SDS011;59284;31.390;34.904;2022-11-20T08:01:38;6.87;;;2.67;;
70744;SDS011;59284;31.390;34.904;2022-11-20T08:04:04;10.23;;;3.40;;
70744;SDS011;59284;31.390;34.904;2022-11-20T08:06:31;11.65;;;2.47;;
70744;SDS011;59284;31.390;34.904;2022-11-20T08:08:56;8.77;;;2.90;;
70744;SDS011;59284;31.390;34.904;2022-11-20T08:11:22;14.88;;;2.50;;
70744;SDS011;59284;31.390;34.904;2022-11-20T08:14:06;25.80;;;3.60;;
70744;SDS011;59284;31.390;34.904;2022-11-20T08:16:38;10.55;;;3.00;;
70744;SDS011;59284;31.390;34.904;2022-11-20T08:19:08;10.67;;;3.00;;
70744;SDS011;59284;31.390;34.904;2022-11-20T08:21:33;6.10;;;3.00;;
70744;SDS011;59284;31.390;34.904;2022-11-20T08:23:59;6.03;;;2.27;;
70744;SDS011;59284;31.390;34.904;2022-11-20T08:26:25;7.35;;;2.70;;
70744;SDS011;59284;31.390;34.904;2022-11-20T08:28:55;8.35;;;3.17;;
70744;SDS011;59284;31.390;34.904;2022-11-20T08:31:21;14.35;;;3.33;;
70744;SDS011;59284;31.390;34.904;2022-11-20T08:33:48;13.80;;;3.47;;
70744;SDS011;59284;31.390;34.904;2022-11-20T08:36:14;9.10;;;3.05;;
70744;SDS011;59284;31.390;34.904;2022-11-20T08:38:39;11.73;;;2.70;;
70744;SDS011;59284;31.390;34.904;2022-11-20T08:41:05;11.35;;;3.30;;
70744;SDS011;59284;31.390;34.904;2022-11-20T08:43:49;19.63;;;3.35;;
70744;SDS011;59284;31.390;34.904;2022-11-20T08:46:16;7.37;;;2.77;;
70744;SDS011;59284;31.390;34.904;2022-11-20T08:48:42;7.43;;;3.13;;
70744;SDS011;59284;31.390;34.904;2022-11-20T08:51:09;13.38;;;3.53;;
70744;SDS011;59284;31.390;34.904;2022-11-20T08:53:36;9.85;;;3.03;;
70744;SDS011;59284;31.390;34.904;2022-11-20T08:56:02;6.80;;;2.80;;
70744;SDS011;59284;31.390;34.904;2022-11-20T08:58:27;5.70;;;2.80;;
70744;SDS011;59284;31.390;34.904;2022-11-20T09:00:53;11.98;;;3.42;;
70744;SDS011;59284;31.390;34.904;2022-11-20T09:03:19;13.87;;;3.17;;
70744;SDS011;59284;31.390;34.904;2022-11-20T09:05:45;8.15;;;3.65;;
70744;SDS011;59284;31.390;34.904;2022-11-20T09:08:11;10.85;;;3.70;;
70744;SDS011;59284;31.390;34.904;2022-11-20T09:10:36;6.90;;;3.10;;
70744;SDS011;59284;31.390;34.904;2022-11-20T09:13:04;9.48;;;3.25;;
70744;SDS011;59284;31.390;34.904;2022-11-20T09:15:31;11.60;;;3.33;;
70744;SDS011;59284;31.390;34.904;2022-11-20T09:17:58;16.48;;;3.53;;
70744;SDS011;59284;31.390;34.904;2022-11-20T09:20:25;11.73;;;3.87;;
70744;SDS011;59284;31.390;34.904;2022-11-20T09:22:53;8.27;;;3.17;;
70744;SDS011;59284;31.390;34.904;2022-11-20T09:25:19;20.63;;;3.65;;
70744;SDS011;59284;31.390;34.904;2022-11-20T09:27:45;15.53;;;3.60;;
70744;SDS011;59284;31.390;34.904;2022-11-20T09:30:11;15.75;;;2.80;;
70744;SDS011;59284;31.390;34.904;2022-11-20T09:32:40;8.73;;;2.70;;
70744;SDS011;59284;31.390;34.904;2022-11-20T09:35:06;13.02;;;3.83;;
70744;SDS011;59284;31.390;34.904;2022-11-20T09:37:33;13.10;;;3.70;;
70744;SDS011;59284;31.390;34.904;2022-11-20T09:39:58;12.60;;;3.30;;
70744;SDS011;59284;31.390;34.904;2022-11-20T09:50:53;15.02;;;3.30;;
70744;SDS011;59284;31.390;34.904;2022-11-20T09:56:06;12.27;;;3.40;;
70744;SDS011;59284;31.390;34.904;2022-11-20T10:01:14;15.68;;;4.15;;
70744;SDS011;59284;31.390;34.904;2022-11-20T10:03:54;24.83;;;3.85;;
70744;SDS011;59284;31.390;34.904;2022-11-20T10:07:15;15.93;;;3.85;;
70744;SDS011;59284;31.390;34.904;2022-11-20T10:09:31;27.53;;;5.23;;
70744;SDS011;59284;31.390;34.904;2022-11-20T10:15:22;23.35;;;3.60;;
70744;SDS011;59284;31.390;34.904;2022-11-20T10:23:25;11.57;;;3.13;;
70744;SDS011;59284;31.390;34.904;2022-11-20T10:26:05;8.82;;;3.35;;
70744;SDS011;59284;31.390;34.904;2022-11-20T10:34:01;10.07;;;3.45;;
70744;SDS011;59284;31.390;34.904;2022-11-20T10:36:38;17.40;;;4.00;;
70744;SDS011;59284;31.390;34.904;2022-11-20T10:39:24;15.35;;;3.28;;
70744;SDS011;59284;31.390;34.904;2022-11-20T10:42:13;7.78;;;3.00;;
70744;SDS011;59284;31.390;34.904;2022-11-20T10:44:50;13.93;;;3.47;;
70744;SDS011;59284;31.390;34.904;2022-11-20T10:47:30;14.13;;;3.97;;
70744;SDS011;59284;31.390;34.904;2022-11-20T10:49:57;14.20;;;3.70;;
70744;SDS011;59284;31.390;34.904;2022-11-20T10:55:04;11.27;;;3.58;;
70744;SDS011;59284;31.390;34.904;2022-11-20T11:00:25;18.77;;;3.65;;
70744;SDS011;59284;31.390;34.904;2022-11-20T11:02:52;17.10;;;3.43;;
70744;SDS011;59284;31.390;34.904;2022-11-20T11:07:46;19.80;;;3.73;;
70744;SDS011;59284;31.390;34.904;2022-11-20T11:12:46;17.55;;;3.92;;
70744;SDS011;59284;31.390;34.904;2022-11-20T11:15:29;19.70;;;4.10;;
70744;SDS011;59284;31.390;34.904;2022-11-20T11:18:02;22.35;;;5.25;;
70744;SDS011;59284;31.390;34.904;2022-11-20T11:20:28;16.27;;;4.47;;
70744;SDS011;59284;31.390;34.904;2022-11-20T11:22:56;22.48;;;4.32;;
70744;SDS011;59284;31.390;34.904;2022-11-20T11:25:25;13.85;;;3.85;;
70744;SDS011;59284;31.390;34.904;2022-11-20T11:27:53;17.05;;;4.13;;
70744;SDS011;59284;31.390;34.904;2022-11-20T11:30:21;16.17;;;3.95;;
70744;SDS011;59284;31.390;34.904;2022-11-20T11:32:48;27.57;;;4.40;;
70744;SDS011;59284;31.390;34.904;2022-11-20T11:35:24;18.52;;;4.65;;
70744;SDS011;59284;31.390;34.904;2022-11-20T11:37:52;19.52;;;4.75;;
70744;SDS011;59284;31.390;34.904;2022-11-20T11:40:48;11.27;;;3.23;;
70744;SDS011;59284;31.390;34.904;2022-11-20T11:43:19;20.48;;;3.95;;
70744;SDS011;59284;31.390;34.904;2022-11-20T11:46:21;10.57;;;3.20;;
70744;SDS011;59284;31.390;34.904;2022-11-20T11:48:58;15.27;;;4.13;;
70744;SDS011;59284;31.390;34.904;2022-11-20T11:54:50;10.83;;;3.87;;
70744;SDS011;59284;31.390;34.904;2022-11-20T12:08:12;14.30;;;3.80;;
70744;SDS011;59284;31.390;34.904;2022-11-20T12:10:52;12.05;;;4.07;;
70744;SDS011;59284;31.390;34.904;2022-11-20T12:15:59;12.13;;;3.55;;
70744;SDS011;59284;31.390;34.904;2022-11-20T12:18:26;17.27;;;3.70;;
70744;SDS011;59284;31.390;34.904;2022-11-20T12:21:02;15.23;;;3.43;;
70744;SDS011;59284;31.390;34.904;2022-11-20T12:23:57;12.40;;;3.65;;
70744;SDS011;59284;31.390;34.904;2022-11-20T12:35:05;13.17;;;3.60;;
70744;SDS011;59284;31.390;34.904;2022-11-20T12:41:14;13.48;;;4.18;;
70744;SDS011;59284;31.390;34.904;2022-11-20T12:44:20;10.43;;;3.50;;
70744;SDS011;59284;31.390;34.904;2022-11-20T12:52:57;17.50;;;4.40;;
70744;SDS011;59284;31.390;34.904;2022-11-20T12:55:46;10.50;;;3.78;;
70744;SDS011;59284;31.390;34.904;2022-11-20T12:58:27;17.27;;;4.38;;
70744;SDS011;59284;31.390;34.904;2022-11-20T13:01:49;15.80;;;3.83;;
70744;SDS011;59284;31.390;34.904;2022-11-20T13:07:00;12.05;;;3.72;;
70744;SDS011;59284;31.390;34.904;2022-11-20T13:09:28;13.40;;;3.63;;
70744;SDS011;59284;31.390;34.904;2022-11-20T13:14:42;14.48;;;3.70;;
70744;SDS011;59284;31.390;34.904;2022-11-20T13:17:20;12.57;;;3.63;;
70744;SDS011;59284;31.390;34.904;2022-11-20T13:20:01;10.95;;;3.72;;
70744;SDS011;59284;31.390;34.904;2022-11-20T13:22:43;6.95;;;2.92;;
70744;SDS011;59284;31.390;34.904;2022-11-20T13:25:33;7.97;;;2.75;;
70744;SDS011;59284;31.390;34.904;2022-11-20T13:28:01;12.38;;;3.55;;
70744;SDS011;59284;31.390;34.904;2022-11-20T13:30:49;12.60;;;3.90;;
70744;SDS011;59284;31.390;34.904;2022-11-20T13:36:00;9.93;;;3.60;;
70744;SDS011;59284;31.390;34.904;2022-11-20T13:38:39;10.05;;;3.58;;
70744;SDS011;59284;31.390;34.904;2022-11-20T13:41:23;11.00;;;3.58;;
70744;SDS011;59284;31.390;34.904;2022-11-20T13:44:04;5.43;;;2.83;;
70744;SDS011;59284;31.390;34.904;2022-11-20T13:46:36;17.40;;;5.47;;
70744;SDS011;59284;31.390;34.904;2022-11-20T13:49:09;17.63;;;7.75;;
70744;SDS011;59284;31.390;34.904;2022-11-20T13:51:44;13.70;;;5.22;;
70744;SDS011;59284;31.390;34.904;2022-11-20T14:00:16;10.93;;;4.10;;
70744;SDS011;59284;31.390;34.904;2022-11-20T14:02:44;15.07;;;4.55;;
70744;SDS011;59284;31.390;34.904;2022-11-20T14:05:37;15.85;;;5.18;;
70744;SDS011;59284;31.390;34.904;2022-11-20T14:08:06;15.18;;;4.43;;
70744;SDS011;59284;31.390;34.904;2022-11-20T14:10:39;13.17;;;4.30;;
70744;SDS011;59284;31.390;34.904;2022-11-20T14:13:15;12.18;;;4.00;;
70744;SDS011;59284;31.390;34.904;2022-11-20T14:15:44;16.40;;;4.30;;
70744;SDS011;59284;31.390;34.904;2022-11-20T14:18:11;12.97;;;3.77;;
70744;SDS011;59284;31.390;34.904;2022-11-20T14:20:39;13.10;;;4.38;;
70744;SDS011;59284;31.390;34.904;2022-11-20T14:23:08;15.55;;;3.50;;
70744;SDS011;59284;31.390;34.904;2022-11-20T14:25:35;7.57;;;3.40;;
70744;SDS011;59284;31.390;34.904;2022-11-20T14:28:02;18.80;;;4.20;;
70744;SDS011;59284;31.390;34.904;2022-11-20T14:30:36;10.75;;;3.53;;
70744;SDS011;59284;31.390;34.904;2022-11-20T14:33:09;14.82;;;3.50;;
70744;SDS011;59284;31.390;34.904;2022-11-20T14:35:40;15.77;;;3.70;;
70744;SDS011;59284;31.390;34.904;2022-11-20T14:38:14;14.10;;;3.50;;
70744;SDS011;59284;31.390;34.904;2022-11-20T14:40:42;10.23;;;3.60;;
70744;SDS011;59284;31.390;34.904;2022-11-20T14:43:19;13.57;;;3.58;;
70744;SDS011;59284;31.390;34.904;2022-11-20T14:45:48;13.82;;;4.35;;
70744;SDS011;59284;31.390;34.904;2022-11-20T14:48:28;9.90;;;3.35;;
70744;SDS011;59284;31.390;34.904;2022-11-20T14:50:57;11.57;;;3.35;;
70744;SDS011;59284;31.390;34.904;2022-11-20T14:53:24;13.37;;;3.00;;
70744;SDS011;59284;31.390;34.904;2022-11-20T14:55:57;12.57;;;3.55;;
70744;SDS011;59284;31.390;34.904;2022-11-20T14:58:31;10.63;;;3.47;;
70744;SDS011;59284;31.390;34.904;2022-11-20T15:01:06;15.52;;;3.50;;
70744;SDS011;59284;31.390;34.904;2022-11-20T15:03:39;14.83;;;3.67;;
70744;SDS011;59284;31.390;34.904;2022-11-20T15:06:06;11.18;;;3.85;;
70744;SDS011;59284;31.390;34.904;2022-11-20T15:08:35;12.93;;;3.38;;
70744;SDS011;59284;31.390;34.904;2022-11-20T15:11:01;12.65;;;3.55;;
70744;SDS011;59284;31.390;34.904;2022-11-20T15:13:37;16.75;;;3.80;;
70744;SDS011;59284;31.390;34.904;2022-11-20T15:16:08;15.20;;;3.43;;
70744;SDS011;59284;31.390;34.904;2022-11-20T15:18:46;12.93;;;3.67;;
70744;SDS011;59284;31.390;34.904;2022-11-20T15:21:14;18.80;;;3.17;;
70744;SDS011;59284;31.390;34.904;2022-11-20T15:23:41;16.23;;;3.72;;
70744;SDS011;59284;31.390;34.904;2022-11-20T15:26:07;11.52;;;3.50;;
70744;SDS011;59284;31.390;34.904;2022-11-20T15:31:10;12.43;;;3.55;;
70744;SDS011;59284;31.390;34.904;2022-11-20T15:33:37;15.00;;;4.05;;
70744;SDS011;59284;31.390;34.904;2022-11-20T15:36:03;10.97;;;3.37;;
70744;SDS011;59284;31.390;34.904;2022-11-20T15:38:29;15.20;;;3.90;;
70744;SDS011;59284;31.390;34.904;2022-11-20T15:40:55;11.02;;;3.70;;
70744;SDS011;59284;31.390;34.904;2022-11-20T15:43:23;14.63;;;3.83;;
70744;SDS011;59284;31.390;34.904;2022-11-20T15:45:49;21.07;;;4.07;;
70744;SDS011;59284;31.390;34.904;2022-11-20T15:48:21;13.48;;;3.13;;
70744;SDS011;59284;31.390;34.904;2022-11-20T15:53:39;16.58;;;3.42;;
70744;SDS011;59284;31.390;34.904;2022-11-20T15:56:05;7.28;;;2.97;;
70744;SDS011;59284;31.390;34.904;2022-11-20T15:58:36;15.55;;;3.83;;
70744;SDS011;59284;31.390;34.904;2022-11-20T16:01:01;14.40;;;4.13;;
70744;SDS011;59284;31.390;34.904;2022-11-20T16:03:27;15.07;;;3.30;;
70744;SDS011;59284;31.390;34.904;2022-11-20T16:05:52;16.30;;;3.47;;
70744;SDS011;59284;31.390;34.904;2022-11-20T16:08:18;15.80;;;3.77;;
70744;SDS011;59284;31.390;34.904;2022-11-20T16:10:44;8.13;;;3.00;;
70744;SDS011;59284;31.390;34.904;2022-11-20T16:13:13;13.23;;;3.47;;
70744;SDS011;59284;31.390;34.904;2022-11-20T16:16:01;17.17;;;3.58;;
70744;SDS011;59284;31.390;34.904;2022-11-20T16:18:30;7.63;;;3.08;;
70744;SDS011;59284;31.390;34.904;2022-11-20T16:20:56;12.07;;;2.80;;